Time;durP1;ratioP1;P1;durP2;ratioP2;P2;SDS_P1;SDS_P2;PMS_P1;PMS_P2;Temp;Humidity;BMP_temperature;BMP_pressure;BME280_temperature;BME280_humidity;BME280_pressure;Samples;Min_cycle;Max_cycle;Signal;HPM_P1;HPM_P2
2022/08/17 00:01:12;;;;;;;9.02;5.93;;;20.40;99.90;;;;;;5028678;28;20079;-63
2022/08/17 00:03:40;;;;;;;14.60;7.43;;;20.50;99.90;;;;;;5029882;28;20030;-63
2022/08/17 00:06:15;;;;;;;10.77;7.25;;;20.40;99.90;;;;;;5025588;28;20100;-63
2022/08/17 00:08:44;;;;;;;11.85;5.85;;;20.40;99.90;;;;;;5025993;28;20054;-63
2022/08/17 00:11:27;;;;;;;9.48;6.75;;;20.40;99.90;;;;;;5028944;28;20034;-63
2022/08/17 00:13:57;;;;;;;11.40;7.13;;;20.40;99.90;;;;;;5028219;28;20065;-64
2022/08/17 00:16:24;;;;;;;15.50;7.28;;;20.40;99.90;;;;;;5022167;28;20549;-63
2022/08/17 00:18:50;;;;;;;13.65;6.80;;;20.40;99.90;;;;;;5027430;28;20095;-63
2022/08/17 00:21:18;;;;;;;15.10;7.20;;;20.40;99.90;;;;;;5025752;28;20452;-63
2022/08/17 00:23:45;;;;;;;12.15;6.72;;;20.40;99.90;;;;;;5009255;28;20543;-63
2022/08/17 00:26:12;;;;;;;12.90;7.30;;;20.30;99.90;;;;;;5021620;28;20029;-63
2022/08/17 00:28:39;;;;;;;14.60;6.93;;;20.30;99.90;;;;;;5027334;28;20522;-63
2022/08/17 00:31:07;;;;;;;9.80;6.78;;;20.30;99.90;;;;;;5028070;28;20103;-64
2022/08/17 00:33:33;;;;;;;15.68;7.95;;;20.30;99.90;;;;;;5021655;28;20033;-63
2022/08/17 00:36:00;;;;;;;11.60;7.20;;;20.40;99.90;;;;;;5027034;28;20025;-63
2022/08/17 00:38:27;;;;;;;9.23;7.32;;;20.40;99.90;;;;;;5027525;28;20388;-64
2022/08/17 00:40:55;;;;;;;11.13;5.93;;;20.40;99.90;;;;;;5025427;28;20417;-63
2022/08/17 00:43:29;;;;;;;8.38;6.07;;;20.50;99.90;;;;;;5007552;28;20072;-63
2022/08/17 00:45:55;;;;;;;;;;;20.50;99.90;;;;;;5020930;28;20100;-63
2022/08/17 00:48:22;;;;;;;13.27;6.72;;;20.60;99.90;;;;;;5028870;28;20016;-63
2022/08/17 00:50:56;;;;;;;9.32;6.20;;;20.60;99.90;;;;;;5016214;28;20026;-63
2022/08/17 00:53:23;;;;;;;;;;;20.60;99.90;;;;;;5024411;28;20061;-63
2022/08/17 00:55:48;;;;;;;8.73;6.20;;;20.70;99.90;;;;;;5026975;28;19966;-63
2022/08/17 00:58:14;;;;;;;7.78;5.65;;;20.70;99.90;;;;;;5022907;28;20653;-63
2022/08/17 01:00:42;;;;;;;8.55;6.13;;;20.70;99.90;;;;;;5021433;28;20442;-64
2022/08/17 01:03:19;;;;;;;8.20;5.68;;;20.80;99.90;;;;;;5027378;28;20027;-63
2022/08/17 01:05:48;;;;;;;11.23;5.95;;;20.80;99.90;;;;;;5017213;28;20037;-62
2022/08/17 01:08:18;;;;;;;9.02;5.95;;;20.80;99.90;;;;;;5027669;28;20037;-63
2022/08/17 01:10:51;;;;;;;6.93;5.25;;;20.80;99.90;;;;;;5025143;28;20029;-63
2022/08/17 01:13:17;;;;;;;7.68;5.28;;;20.80;99.90;;;;;;5028373;28;20040;-63
2022/08/17 01:15:54;;;;;;;7.63;4.80;;;20.80;99.90;;;;;;5024347;28;20391;-63
2022/08/17 01:18:20;;;;;;;7.25;4.80;;;20.80;99.90;;;;;;5028696;28;20037;-63
2022/08/17 01:20:52;;;;;;;9.68;4.80;;;20.80;99.90;;;;;;5028617;28;20071;-63
2022/08/17 01:23:20;;;;;;;5.05;4.55;;;20.80;99.90;;;;;;5023111;28;20162;-63
2022/08/17 01:25:48;;;;;;;5.35;4.40;;;20.70;99.90;;;;;;5028662;28;20029;-62
2022/08/17 01:28:14;;;;;;;7.25;4.90;;;20.70;99.90;;;;;;5028531;28;20104;-63
2022/08/17 01:30:41;;;;;;;7.15;4.82;;;20.70;99.90;;;;;;5026450;28;20075;-63
2022/08/17 01:33:10;;;;;;;5.07;4.55;;;20.70;99.90;;;;;;5028738;28;20040;-63
2022/08/17 01:35:36;;;;;;;13.15;4.60;;;20.70;99.90;;;;;;5028053;28;20156;-63
2022/08/17 01:38:02;;;;;;;7.22;4.13;;;20.70;99.90;;;;;;5029254;28;20143;-63
2022/08/17 01:40:36;;;;;;;5.13;3.95;;;20.70;99.90;;;;;;5025621;28;20112;-63
2022/08/17 01:43:17;;;;;;;8.57;4.70;;;20.70;99.90;;;;;;5023493;28;20394;-63
2022/08/17 01:45:48;;;;;;;7.22;4.65;;;20.70;99.90;;;;;;5024352;28;20152;-63
2022/08/17 01:48:14;;;;;;;6.82;4.57;;;20.70;99.90;;;;;;5019090;28;20045;-63
2022/08/17 01:50:43;;;;;;;5.57;4.47;;;20.60;99.90;;;;;;5024578;28;20515;-62
2022/08/17 01:53:19;;;;;;;7.63;3.97;;;20.60;99.90;;;;;;5017688;28;20034;-62
2022/08/17 01:55:58;;;;;;;5.90;4.72;;;20.60;99.90;;;;;;5026967;28;20522;-63
2022/08/17 01:58:24;;;;;;;8.63;3.95;;;20.60;99.90;;;;;;5027246;28;20051;-63
2022/08/17 02:00:51;;;;;;;7.20;4.57;;;20.50;99.90;;;;;;5020094;28;20022;-63
2022/08/17 02:03:19;;;;;;;8.63;4.43;;;20.60;99.90;;;;;;5022813;28;20036;-63
2022/08/17 02:05:47;;;;;;;6.32;4.43;;;20.50;99.90;;;;;;5023484;28;20046;-63
2022/08/17 02:08:16;;;;;;;7.38;4.55;;;20.50;99.90;;;;;;5026809;28;20025;-64
2022/08/17 02:10:44;;;;;;;6.28;4.07;;;20.50;99.90;;;;;;5028308;28;20021;-63
2022/08/17 02:13:10;;;;;;;9.18;5.20;;;20.40;99.90;;;;;;5021583;28;20030;-63
2022/08/17 02:15:36;;;;;;;6.07;4.57;;;20.30;99.90;;;;;;5026165;28;20021;-63
2022/08/17 02:18:04;;;;;;;9.40;4.50;;;20.30;99.90;;;;;;5023532;28;20033;-63
2022/08/17 02:20:32;;;;;;;8.60;4.47;;;20.30;99.90;;;;;;5025017;28;20036;-63
2022/08/17 02:23:01;;;;;;;10.25;4.68;;;20.20;99.90;;;;;;5024091;28;20033;-63
2022/08/17 02:25:30;;;;;;;7.22;4.35;;;20.20;99.90;;;;;;5029847;28;20386;-62
2022/08/17 02:27:56;;;;;;;8.77;4.45;;;20.20;99.90;;;;;;5030931;28;20045;-63
2022/08/17 02:30:21;;;;;;;5.60;3.53;;;20.20;99.90;;;;;;5028688;28;20045;-63
2022/08/17 02:32:47;;;;;;;6.32;4.18;;;20.10;99.90;;;;;;5023747;28;20033;-63
2022/08/17 02:35:13;;;;;;;7.88;4.00;;;20.10;99.90;;;;;;5009242;28;20037;-63
2022/08/17 02:37:40;;;;;;;7.70;4.20;;;20.00;99.90;;;;;;5031434;28;20049;-63
2022/08/17 02:40:06;;;;;;;10.07;4.32;;;20.00;99.90;;;;;;5012442;28;20083;-63
2022/08/17 02:42:38;;;;;;;5.32;4.30;;;20.00;99.90;;;;;;5028914;28;20033;-63
2022/08/17 02:45:07;;;;;;;8.68;3.95;;;20.00;99.90;;;;;;5027689;28;20083;-63
2022/08/17 02:47:33;;;;;;;6.50;3.70;;;20.00;99.90;;;;;;5027244;28;20033;-63
2022/08/17 02:49:59;;;;;;;6.07;4.80;;;19.90;99.90;;;;;;5030801;28;20030;-63
2022/08/17 02:52:26;;;;;;;6.25;4.13;;;19.90;99.90;;;;;;5027462;28;20091;-63
2022/08/17 02:54:52;;;;;;;5.05;4.20;;;19.80;99.90;;;;;;5031003;28;20075;-63
2022/08/17 02:57:18;;;;;;;5.40;4.05;;;19.80;99.90;;;;;;5025743;28;20055;-63
2022/08/17 02:59:43;;;;;;;7.50;4.32;;;19.80;99.90;;;;;;5021531;28;20507;-61
2022/08/17 03:02:10;;;;;;;5.90;5.03;;;19.70;99.90;;;;;;5028318;28;20025;-63
2022/08/17 03:04:37;;;;;;;5.60;4.20;;;19.70;99.90;;;;;;5026519;28;20038;-63
2022/08/17 03:07:04;;;;;;;5.60;4.28;;;19.70;99.90;;;;;;5024742;28;20487;-63
2022/08/17 03:09:29;;;;;;;5.70;4.63;;;19.70;99.90;;;;;;5027070;28;20100;-63
2022/08/17 03:12:04;;;;;;;5.05;4.50;;;19.60;99.90;;;;;;5027461;28;20603;-63
2022/08/17 03:14:31;;;;;;;6.05;4.28;;;19.60;99.90;;;;;;5024718;28;20112;-63
2022/08/17 03:16:57;;;;;;;5.95;4.60;;;19.60;99.90;;;;;;5027241;28;20101;-63
2022/08/17 03:19:22;;;;;;;6.00;4.38;;;19.60;99.90;;;;;;5023038;28;20104;-63
2022/08/17 03:21:48;;;;;;;8.77;4.78;;;19.60;99.90;;;;;;5023810;28;20655;-62
2022/08/17 03:24:14;;;;;;;6.18;4.80;;;19.50;99.90;;;;;;5020961;28;20038;-62
2022/08/17 03:26:39;;;;;;;5.15;4.22;;;19.50;99.90;;;;;;5024522;28;20034;-63
2022/08/17 03:29:05;;;;;;;4.95;4.32;;;19.50;99.90;;;;;;5029005;28;20025;-62
2022/08/17 03:31:31;;;;;;;8.07;4.43;;;19.60;99.90;;;;;;5026982;28;20174;-62
2022/08/17 03:33:56;;;;;;;11.00;4.22;;;19.50;99.90;;;;;;5028455;28;20025;-63
2022/08/17 03:36:22;;;;;;;9.13;4.53;;;19.50;99.90;;;;;;5023351;28;20021;-63
2022/08/17 03:38:48;;;;;;;7.18;4.05;;;19.50;99.90;;;;;;5025897;28;20198;-63
2022/08/17 03:41:13;;;;;;;6.78;4.63;;;19.50;99.90;;;;;;5046899;22;20041;-58
2022/08/17 03:43:39;;;;;;;6.40;4.80;;;19.50;99.90;;;;;;5021955;28;20060;-58
2022/08/17 03:57:07;;;;;;;7.63;4.55;;;19.50;99.90;;;;;;5025243;28;20117;-59
2022/08/17 03:59:34;;;;;;;5.40;4.35;;;19.50;99.90;;;;;;5023710;28;20511;-58
2022/08/17 04:02:07;;;;;;;5.93;4.50;;;19.50;99.90;;;;;;5023549;28;20072;-58
2022/08/17 04:04:34;;;;;;;6.85;4.20;;;19.50;99.90;;;;;;5028622;28;20079;-59
2022/08/17 04:06:59;;;;;;;9.98;4.68;;;19.60;99.90;;;;;;5026251;28;20034;-56
2022/08/17 04:09:25;;;;;;;8.82;4.40;;;19.60;99.90;;;;;;5027472;28;20025;-59
2022/08/17 04:11:50;;;;;;;7.72;4.53;;;19.60;99.90;;;;;;5027176;28;20043;-58
2022/08/17 04:14:16;;;;;;;6.45;4.55;;;19.50;99.90;;;;;;5028983;28;20371;-59
2022/08/17 04:16:42;;;;;;;5.90;4.55;;;19.50;99.90;;;;;;5026154;28;20094;-59
2022/08/17 04:19:07;;;;;;;4.32;3.92;;;19.60;99.90;;;;;;5026622;28;20562;-57
2022/08/17 04:21:33;;;;;;;4.88;4.18;;;19.60;99.90;;;;;;5022709;28;20116;-58
2022/08/17 04:23:59;;;;;;;8.93;4.55;;;19.60;99.90;;;;;;5025810;28;20053;-58
2022/08/17 04:26:25;;;;;;;6.75;4.07;;;19.70;99.90;;;;;;5027535;28;20037;-59
2022/08/17 04:28:50;;;;;;;7.97;4.38;;;19.70;99.90;;;;;;5020535;28;20060;-58
2022/08/17 04:31:16;;;;;;;6.28;4.30;;;19.70;99.90;;;;;;5023177;28;20033;-59
2022/08/17 04:33:43;;;;;;;5.97;4.63;;;19.70;99.90;;;;;;5027616;28;20033;-59
2022/08/17 04:36:09;;;;;;;7.53;4.30;;;19.70;99.90;;;;;;5025479;28;20053;-58
2022/08/17 04:38:37;;;;;;;6.47;4.30;;;19.70;99.90;;;;;;5022206;28;20033;-59
2022/08/17 04:43:53;;;;;;;9.27;4.88;;;19.80;99.90;;;;;;5027915;28;20044;-57
2022/08/17 04:46:24;;;;;;;8.18;4.93;;;19.80;99.90;;;;;;5025440;28;20049;-58
2022/08/17 04:48:53;;;;;;;6.50;4.88;;;19.70;99.90;;;;;;5019873;28;20025;-56
2022/08/17 04:51:20;;;;;;;6.50;4.28;;;19.80;99.90;;;;;;5022607;28;20040;-57
2022/08/17 04:53:48;;;;;;;7.97;4.82;;;19.90;99.90;;;;;;5023992;28;20032;-57
2022/08/17 04:56:15;;;;;;;8.63;5.20;;;19.90;99.90;;;;;;5023154;28;20083;-58
2022/08/17 04:58:42;;;;;;;7.47;4.30;;;20.00;99.90;;;;;;5024539;28;20037;-58
2022/08/17 05:01:07;;;;;;;11.60;4.55;;;20.00;99.90;;;;;;5019962;28;20491;-57
2022/08/17 05:03:33;;;;;;;11.95;5.07;;;20.00;99.90;;;;;;5022594;28;20029;-57
2022/08/17 05:05:59;;;;;;;10.43;4.18;;;20.00;99.90;;;;;;5022265;28;20025;-57
2022/08/17 05:08:25;;;;;;;5.80;5.10;;;20.10;99.90;;;;;;5020129;28;20779;-57
2022/08/17 05:10:50;;;;;;;6.28;4.68;;;20.10;99.90;;;;;;5020282;28;20028;-57
2022/08/17 05:13:23;;;;;;;6.00;4.70;;;20.20;99.90;;;;;;5020784;28;20076;-57
2022/08/17 05:15:53;;;;;;;7.28;3.95;;;20.20;99.90;;;;;;5021608;28;20022;-55
2022/08/17 05:18:19;;;;;;;10.20;5.22;;;20.30;99.90;;;;;;5020075;28;20029;-57
2022/08/17 05:20:45;;;;;;;7.53;4.18;;;20.30;99.90;;;;;;5020239;28;20440;-57
2022/08/17 05:23:13;;;;;;;10.07;4.38;;;20.30;99.90;;;;;;5019075;28;20013;-57
2022/08/17 05:25:42;;;;;;;6.07;4.20;;;20.40;99.90;;;;;;5019374;28;20025;-57
2022/08/17 05:28:08;;;;;;;8.63;4.57;;;20.40;99.90;;;;;;5020745;28;20042;-55
2022/08/17 05:30:34;;;;;;;5.22;4.18;;;20.40;99.90;;;;;;5024825;28;20056;-57
2022/08/17 05:33:06;;;;;;;5.20;3.92;;;20.40;99.90;;;;;;5029251;28;20041;-56
2022/08/17 05:35:34;;;;;;;6.00;4.07;;;20.40;99.90;;;;;;5023124;28;20033;-55
2022/08/17 05:38:00;;;;;;;5.95;4.07;;;20.50;99.90;;;;;;5029424;28;20025;-56
2022/08/17 05:40:26;;;;;;;7.60;4.30;;;20.50;99.90;;;;;;5007594;28;20447;-56
2022/08/17 05:43:07;;;;;;;6.93;4.85;;;20.50;99.90;;;;;;5029886;28;20121;-58
2022/08/17 05:45:36;;;;;;;11.60;4.75;;;20.50;99.90;;;;;;5029934;28;20021;-59
2022/08/17 05:48:02;;;;;;;6.63;4.43;;;20.50;99.90;;;;;;5029780;28;20034;-56
2022/08/17 05:50:33;;;;;;;5.78;4.20;;;20.50;99.90;;;;;;5025560;28;20036;-56
2022/08/17 05:53:08;;;;;;;7.07;4.28;;;20.60;99.90;;;;;;5026321;28;20033;-54
2022/08/17 05:55:42;;;;;;;4.88;3.80;;;20.60;99.90;;;;;;5029571;28;20017;-56
2022/08/17 05:58:34;;;;;;;5.80;4.10;;;20.70;99.90;;;;;;5024550;28;20017;-55
2022/08/17 06:01:23;;;;;;;7.07;3.75;;;20.80;99.90;;;;;;5030554;28;20030;-58
2022/08/17 06:04:01;;;;;;;9.35;4.22;;;20.80;99.90;;;;;;5029460;28;20056;-56
2022/08/17 06:06:38;;;;;;;5.85;4.55;;;20.90;99.90;;;;;;5027360;28;20037;-58
2022/08/17 06:09:17;;;;;;;10.88;4.53;;;21.10;99.90;;;;;;5033268;28;20514;-58
2022/08/17 06:11:46;;;;;;;8.20;4.90;;;21.10;99.90;;;;;;5032883;28;20029;-55
2022/08/17 06:14:33;;;;;;;7.63;4.25;;;21.20;99.90;;;;;;5033504;28;20041;-57
2022/08/17 06:17:06;;;;;;;11.98;4.75;;;21.20;99.90;;;;;;5032765;28;20029;-57
2022/08/17 06:19:37;;;;;;;7.95;4.57;;;21.20;99.90;;;;;;5032793;28;20028;-55
2022/08/17 06:22:05;;;;;;;12.95;5.00;;;21.30;99.90;;;;;;5033136;28;20030;-57
2022/08/17 06:24:36;;;;;;;12.95;5.15;;;21.40;99.90;;;;;;5032496;28;20025;-57
2022/08/17 06:27:18;;;;;;;10.40;4.55;;;21.50;99.90;;;;;;5029372;28;20014;-58
2022/08/17 06:30:04;;;;;;;11.48;5.22;;;21.60;99.90;;;;;;5026997;28;20199;-58
2022/08/17 06:32:30;;;;;;;7.65;5.03;;;21.60;99.90;;;;;;5032748;28;20021;-57
2022/08/17 06:35:09;;;;;;;12.52;5.47;;;21.70;99.90;;;;;;5031440;28;20028;-58
2022/08/17 06:37:59;;;;;;;7.57;5.10;;;21.80;99.90;;;;;;5031252;28;20041;-57
2022/08/17 06:40:44;;;;;;;14.60;5.63;;;21.80;99.90;;;;;;5032807;28;20453;-58
2022/08/17 06:43:39;;;;;;;14.20;6.00;;;21.90;99.90;;;;;;5032484;28;20022;-57
2022/08/17 06:46:20;;;;;;;14.70;6.88;;;22.00;99.90;;;;;;5032137;28;20063;-57
2022/08/17 06:48:55;;;;;;;9.15;5.57;;;22.10;99.90;;;;;;5031385;28;20035;-57
2022/08/17 06:51:31;;;;;;;16.42;6.07;;;22.20;99.90;;;;;;5031897;28;20128;-58
2022/08/17 06:54:20;;;;;;;12.70;6.50;;;22.30;99.90;;;;;;5028819;28;20036;-57
2022/08/17 06:57:13;;;;;;;12.73;5.90;;;22.40;99.90;;;;;;5027108;28;20037;-57
2022/08/17 06:59:52;;;;;;;12.07;5.88;;;22.40;99.90;;;;;;5014580;28;20017;-57
2022/08/17 07:02:35;;;;;;;14.45;5.90;;;22.50;99.90;;;;;;5026257;28;20026;-57
2022/08/17 07:05:01;;;;;;;15.68;5.60;;;22.50;99.90;;;;;;5030566;28;20033;-58
2022/08/17 07:10:13;;;;;;;15.93;5.60;;;22.60;99.90;;;;;;5029889;28;20044;-58
2022/08/17 07:12:41;;;;;;;9.35;6.05;;;22.70;99.90;;;;;;5030502;28;20047;-58
2022/08/17 07:15:14;;;;;;;11.95;5.50;;;22.80;99.90;;;;;;5032608;28;20026;-58
2022/08/17 07:17:41;;;;;;;17.48;5.90;;;22.90;99.90;;;;;;5031659;28;20022;-58
2022/08/17 07:20:10;;;;;;;10.93;5.47;;;23.00;99.90;;;;;;5031472;28;20017;-57
2022/08/17 07:22:35;;;;;;;9.57;5.57;;;23.10;99.90;;;;;;5031781;28;20034;-56
2022/08/17 07:25:09;;;;;;;11.88;6.25;;;23.20;99.90;;;;;;5026643;28;20037;-56
2022/08/17 07:27:39;;;;;;;14.68;5.75;;;23.20;99.90;;;;;;5025862;28;20022;-57
2022/08/17 07:30:10;;;;;;;9.10;5.53;;;23.30;99.90;;;;;;5031820;28;20116;-58
2022/08/17 07:32:44;;;;;;;10.75;6.00;;;23.30;99.90;;;;;;5031119;28;20025;-57
2022/08/17 07:35:20;;;;;;;11.68;6.25;;;23.20;99.90;;;;;;5028134;28;20369;-56
2022/08/17 07:37:51;;;;;;;10.85;6.50;;;23.30;99.90;;;;;;5030429;28;20037;-58
2022/08/17 07:40:22;;;;;;;15.18;6.30;;;23.20;99.90;;;;;;5018151;28;20036;-59
2022/08/17 07:43:06;;;;;;;11.68;5.80;;;23.20;99.90;;;;;;5024603;28;20082;-57
2022/08/17 07:48:24;;;;;;;19.63;7.40;;;23.30;99.90;;;;;;5021149;28;20040;-58
2022/08/17 07:50:52;;;;;;;15.20;6.88;;;23.40;99.90;;;;;;5028807;28;20487;-57
2022/08/17 07:53:22;;;;;;;16.00;8.27;;;23.50;99.90;;;;;;5030064;28;20025;-58
2022/08/17 07:55:49;;;;;;;16.85;7.78;;;23.50;99.90;;;;;;5028629;28;20037;-56
2022/08/17 07:58:16;;;;;;;11.98;8.07;;;23.50;99.90;;;;;;5030630;28;20022;-56
2022/08/17 08:00:42;;;;;;;14.18;8.40;;;23.50;99.90;;;;;;5018918;28;20045;-58
2022/08/17 08:03:21;;;;;;;13.00;7.90;;;23.50;99.90;;;;;;5020056;28;20038;-59
2022/08/17 08:05:54;;;;;;;14.60;8.70;;;23.50;99.90;;;;;;5019835;28;20029;-58
2022/08/17 08:08:25;;;;;;;12.20;7.75;;;23.40;99.90;;;;;;5022488;28;20068;-57
2022/08/17 08:11:07;;;;;;;13.02;8.07;;;23.40;99.90;;;;;;5015235;28;20025;-58
2022/08/17 08:13:34;;;;;;;13.60;8.70;;;23.40;99.90;;;;;;5023406;28;20059;-57
2022/08/17 08:16:24;;;;;;;13.32;7.68;;;23.30;99.90;;;;;;5017925;28;20060;-57
2022/08/17 08:18:54;;;;;;;14.70;9.27;;;23.30;99.90;;;;;;5011724;28;20045;-58
2022/08/17 08:21:23;;;;;;;12.30;7.70;;;23.30;99.90;;;;;;5021407;28;20029;-56
2022/08/17 08:24:11;;;;;;;12.10;8.38;;;23.20;99.90;;;;;;5023190;28;20030;-57
2022/08/17 08:27:07;;;;;;;13.38;9.02;;;23.20;99.90;;;;;;5026233;28;20512;-57
2022/08/17 08:30:13;;;;;;;11.18;8.93;;;23.10;99.90;;;;;;5022942;28;20032;-57
2022/08/17 08:33:06;;;;;;;12.18;9.18;;;23.10;99.90;;;;;;5003851;28;20056;-57
2022/08/17 08:35:52;;;;;;;14.32;9.32;;;23.10;99.90;;;;;;5020154;28;20131;-57
2022/08/17 08:38:47;;;;;;;14.95;9.57;;;23.00;99.90;;;;;;5023733;28;20031;-56
2022/08/17 08:41:21;;;;;;;15.68;8.93;;;22.90;99.90;;;;;;5023233;28;20419;-57
2022/08/17 08:44:02;;;;;;;15.13;8.93;;;23.00;99.90;;;;;;5026391;28;20029;-57
2022/08/17 08:46:38;;;;;;;15.88;9.15;;;22.90;99.90;;;;;;5021963;28;20037;-58
2022/08/17 08:49:38;;;;;;;15.05;9.13;;;23.00;99.90;;;;;;5027122;28;20523;-57
2022/08/17 08:52:29;;;;;;;13.30;9.02;;;23.00;99.90;;;;;;5019853;28;20041;-57
2022/08/17 08:55:17;;;;;;;19.38;8.95;;;23.00;99.90;;;;;;5021262;28;20496;-58
2022/08/17 08:57:59;;;;;;;14.80;9.15;;;23.10;99.90;;;;;;5023467;28;20056;-57
2022/08/17 09:00:26;;;;;;;11.98;8.88;;;23.10;99.90;;;;;;5020528;28;20034;-59
2022/08/17 09:03:10;;;;;;;12.38;8.43;;;23.10;99.90;;;;;;5027078;28;20040;-55
2022/08/17 09:06:26;;;;;;;12.88;9.13;;;23.10;99.90;;;;;;5022511;28;20506;-58
2022/08/17 09:08:52;;;;;;;14.00;8.40;;;23.10;99.90;;;;;;4958466;28;20038;-59
2022/08/17 09:11:39;;;;;;;12.95;8.45;;;23.20;99.90;;;;;;5023023;28;20025;-58
2022/08/17 09:14:10;;;;;;;19.75;10.23;;;23.20;99.90;;;;;;5027193;28;20058;-55
2022/08/17 09:16:42;;;;;;;14.23;9.30;;;23.10;99.90;;;;;;5026759;28;20519;-57
2022/08/17 09:19:15;;;;;;;14.10;9.40;;;23.10;99.90;;;;;;5025415;28;20080;-58
2022/08/17 09:21:57;;;;;;;17.17;9.20;;;23.10;99.90;;;;;;5022843;28;20044;-57
2022/08/17 09:24:38;;;;;;;14.20;11.18;;;23.00;99.90;;;;;;5020082;28;20037;-58
2022/08/17 09:27:14;;;;;;;17.50;10.50;;;23.00;99.90;;;;;;5026263;28;20105;-58
2022/08/17 09:29:50;;;;;;;15.38;10.13;;;23.00;99.90;;;;;;5024724;28;20632;-57
2022/08/17 09:32:32;;;;;;;16.63;8.88;;;23.00;99.90;;;;;;5023922;28;20030;-58
2022/08/17 09:35:04;;;;;;;12.57;9.85;;;23.00;99.90;;;;;;5020963;28;20534;-57
2022/08/17 09:37:41;;;;;;;15.23;10.10;;;23.00;99.90;;;;;;5028475;28;20520;-56
2022/08/17 09:40:23;;;;;;;19.73;9.68;;;23.00;99.90;;;;;;5023627;28;20034;-57
2022/08/17 09:43:10;;;;;;;13.65;9.15;;;22.90;99.90;;;;;;5021518;28;20121;-57
2022/08/17 09:45:45;;;;;;;17.60;10.70;;;23.00;99.90;;;;;;5029637;28;20137;-58
2022/08/17 09:48:19;;;;;;;20.60;9.85;;;22.90;99.90;;;;;;5024966;28;20040;-58
2022/08/17 09:50:58;;;;;;;;;;;22.90;99.90;;;;;;5019852;28;20034;-58
2022/08/17 09:53:24;;;;;;;12.73;8.93;;;22.90;99.90;;;;;;5025826;28;19948;-56
2022/08/17 09:56:19;;;;;;;22.00;11.27;;;22.80;99.90;;;;;;5019951;28;20078;-57
2022/08/17 09:59:06;;;;;;;15.52;9.88;;;22.80;99.90;;;;;;5027401;28;20566;-56
2022/08/17 10:01:38;;;;;;;16.58;10.70;;;22.80;99.90;;;;;;5015981;28;20045;-57
2022/08/17 10:04:13;;;;;;;16.67;11.02;;;22.70;99.90;;;;;;5028241;28;20070;-58
2022/08/17 10:06:51;;;;;;;18.50;11.00;;;22.60;99.90;;;;;;5009913;28;20030;-57
2022/08/17 10:09:47;;;;;;;18.35;9.73;;;22.50;99.90;;;;;;5005655;28;20443;-58
2022/08/17 10:12:39;;;;;;;16.13;9.90;;;22.40;99.90;;;;;;5025939;28;20486;-57
2022/08/17 10:15:04;;;;;;;14.13;10.25;;;22.40;99.90;;;;;;5012264;28;20030;-55
2022/08/17 10:17:37;;;;;;;17.17;10.63;;;22.50;99.90;;;;;;5029114;28;20443;-58
2022/08/17 10:20:19;;;;;;;22.00;10.05;;;22.60;99.90;;;;;;5018427;28;20026;-59
2022/08/17 10:29:03;;;;;;;17.40;10.07;;;23.10;99.90;;;;;;4966793;28;20042;-58
2022/08/17 10:31:33;;;;;;;15.02;10.48;;;23.20;99.90;;;;;;5002324;28;20073;-59
2022/08/17 10:34:20;;;;;;;20.33;11.15;;;23.20;99.90;;;;;;5026597;28;20033;-61
2022/08/17 10:37:05;;;;;;;21.83;10.63;;;23.30;99.90;;;;;;5023915;28;20751;-57
2022/08/17 10:39:48;;;;;;;16.40;9.82;;;23.50;99.90;;;;;;5013055;28;20030;-57
2022/08/17 10:42:31;;;;;;;17.65;11.85;;;23.50;99.90;;;;;;5029707;28;20029;-60
2022/08/17 10:45:15;;;;;;;16.52;11.15;;;23.50;99.90;;;;;;5028538;28;20036;-59
2022/08/17 10:47:58;;;;;;;23.58;11.40;;;23.50;99.90;;;;;;5027000;28;20112;-60
2022/08/17 10:50:59;;;;;;;16.38;11.20;;;23.50;99.90;;;;;;5008043;28;20088;-61
2022/08/17 10:53:30;;;;;;;18.98;11.30;;;23.80;99.90;;;;;;5001736;28;20029;-56
2022/08/17 10:56:12;;;;;;;15.95;10.57;;;24.00;99.90;;;;;;5009805;28;20400;-59
2022/08/17 10:58:56;;;;;;;13.85;10.70;;;24.30;99.90;;;;;;5022895;28;20017;-64
2022/08/17 11:01:31;;;;;;;17.13;11.00;;;24.60;99.90;;;;;;5001188;28;20091;-68
2022/08/17 11:04:07;;;;;;;21.15;12.60;;;25.00;99.90;;;;;;5006520;28;20029;-63
2022/08/17 11:07:07;;;;;;;14.13;9.70;;;25.00;99.90;;;;;;5003475;28;20029;-65
2022/08/17 11:09:51;;;;;;;16.08;11.85;;;25.30;99.90;;;;;;5008957;28;20057;-65
2022/08/17 11:12:43;;;;;;;16.08;11.45;;;25.10;99.90;;;;;;5022153;28;20033;-65
2022/08/17 11:15:31;;;;;;;15.95;11.65;;;25.30;99.90;;;;;;4992506;28;20124;-65
2022/08/17 11:18:27;;;;;;;23.50;13.77;;;25.50;99.90;;;;;;5012845;28;20017;-66
2022/08/17 11:21:02;;;;;;;17.58;13.07;;;24.70;99.90;;;;;;5002007;28;20109;-67
2022/08/17 11:23:47;;;;;;;17.60;12.95;;;24.60;99.90;;;;;;5007130;28;20029;-65
2022/08/17 11:26:32;;;;;;;21.45;12.73;;;24.50;99.90;;;;;;5005298;28;20091;-65
2022/08/17 11:29:19;;;;;;;23.80;14.63;;;24.50;99.90;;;;;;5007593;28;20038;-67
2022/08/17 11:32:12;;;;;;;25.67;14.07;;;24.30;99.90;;;;;;5006922;28;20091;-66
2022/08/17 11:34:40;;;;;;;22.38;13.45;;;24.20;99.90;;;;;;5011539;28;20037;-66
2022/08/17 11:37:22;;;;;;;20.25;13.85;;;24.50;99.90;;;;;;5009407;28;20032;-67
2022/08/17 11:40:04;;;;;;;19.08;14.60;;;24.50;99.90;;;;;;5026590;28;20045;-66
2022/08/17 11:42:46;;;;;;;20.55;13.70;;;24.60;99.90;;;;;;5009786;28;20029;-67
2022/08/17 11:45:42;;;;;;;18.90;14.15;;;24.60;99.90;;;;;;5023581;28;20037;-66
2022/08/17 11:51:32;;;;;;;20.48;15.30;;;24.60;99.90;;;;;;5023372;28;20068;-66
2022/08/17 11:54:04;;;;;;;21.27;14.95;;;24.60;99.90;;;;;;5018215;28;20025;-67
2022/08/17 11:56:50;;;;;;;22.38;16.30;;;24.70;99.90;;;;;;5000458;28;20064;-65
2022/08/17 11:59:43;;;;;;;19.60;13.75;;;24.80;99.90;;;;;;5020327;28;20025;-64
2022/08/17 12:02:30;;;;;;;16.85;13.13;;;25.40;99.90;;;;;;4987061;28;20038;-64
2022/08/17 12:05:11;;;;;;;25.35;17.10;;;25.80;99.90;;;;;;5019258;28;20120;-65
2022/08/17 12:08:04;;;;;;;24.50;16.60;;;26.00;99.90;;;;;;5024124;28;20112;-64
2022/08/17 12:10:34;;;;;;;23.67;15.18;;;26.10;99.90;;;;;;5009971;28;20049;-64
2022/08/17 12:13:09;;;;;;;23.67;15.18;;;26.30;99.90;;;;;;5011058;28;20103;-64
2022/08/17 12:15:40;;;;;;;26.38;16.23;;;26.40;99.90;;;;;;5021716;28;20042;-67
2022/08/17 12:18:05;;;;;;;21.67;15.25;;;26.40;99.90;;;;;;5016601;28;20034;-62
2022/08/17 12:20:37;;;;;;;24.40;17.50;;;26.70;99.90;;;;;;5004326;28;20040;-65
2022/08/17 12:23:20;;;;;;;21.98;13.90;;;26.60;99.90;;;;;;5017658;28;20033;-63
2022/08/17 12:25:55;;;;;;;23.13;13.73;;;26.90;99.90;;;;;;5019689;28;20034;-65
2022/08/17 12:28:26;;;;;;;21.05;16.08;;;26.70;99.90;;;;;;5019634;28;20033;-64
2022/08/17 12:30:53;;;;;;;19.83;14.10;;;26.70;99.90;;;;;;5019926;28;20436;-64
2022/08/17 12:33:22;;;;;;;26.65;15.80;;;26.70;99.90;;;;;;5018893;28;20392;-64
2022/08/17 12:36:01;;;;;;;20.05;13.63;;;26.40;99.90;;;;;;5022215;28;20124;-65
2022/08/17 12:38:28;;;;;;;17.27;13.65;;;27.00;99.90;;;;;;5017760;28;20025;-63
2022/08/17 12:40:56;;;;;;;20.00;12.68;;;27.40;99.90;;;;;;5002778;28;20041;-64
2022/08/17 12:43:28;;;;;;;20.90;12.23;;;27.90;99.90;;;;;;5001229;28;20021;-63
2022/08/17 12:46:02;;;;;;;15.75;12.73;;;27.60;99.90;;;;;;5019677;28;20026;-63
2022/08/17 12:48:33;;;;;;;15.90;12.40;;;27.50;99.90;;;;;;5002127;28;20034;-63
2022/08/17 12:51:01;;;;;;;15.75;13.05;;;27.70;99.90;;;;;;5017009;28;20495;-63
2022/08/17 12:53:30;;;;;;;21.40;12.13;;;28.10;99.90;;;;;;5023221;28;20120;-66
2022/08/17 12:56:01;;;;;;;15.73;12.25;;;28.00;99.90;;;;;;5013788;28;20022;-64
2022/08/17 12:58:33;;;;;;;16.15;13.30;;;27.60;99.90;;;;;;5001967;28;20029;-63
2022/08/17 13:01:10;;;;;;;16.58;12.63;;;27.50;99.90;;;;;;5006100;28;20076;-62
2022/08/17 13:03:58;;;;;;;17.25;12.35;;;27.80;99.90;;;;;;5013144;28;20036;-66
2022/08/17 13:06:33;;;;;;;16.33;11.75;;;27.50;99.90;;;;;;5008102;28;20083;-65
2022/08/17 13:09:17;;;;;;;18.48;10.90;;;27.80;99.90;;;;;;5029590;28;20029;-64
2022/08/17 13:11:53;;;;;;;16.33;10.90;;;27.90;99.90;;;;;;5001750;28;20025;-64
2022/08/17 13:14:19;;;;;;;14.65;10.27;;;27.80;99.90;;;;;;5009704;28;20945;-64
2022/08/17 13:16:55;;;;;;;13.90;10.75;;;28.10;99.90;;;;;;5019166;28;20103;-63
2022/08/17 13:19:23;;;;;;;18.13;12.65;;;28.00;99.90;;;;;;5003083;28;20156;-63
2022/08/17 13:21:52;;;;;;;14.88;11.65;;;27.70;99.90;;;;;;5021935;28;20021;-64
2022/08/17 13:24:20;;;;;;;15.48;11.50;;;27.90;99.90;;;;;;5001865;28;20481;-63
2022/08/17 13:26:58;;;;;;;16.83;13.02;;;27.70;99.90;;;;;;5023234;28;20108;-63
2022/08/17 13:29:24;;;;;;;19.23;12.57;;;27.50;99.90;;;;;;5015857;28;21173;-63
2022/08/17 13:31:57;;;;;;;19.52;12.73;;;27.50;99.90;;;;;;5019033;28;20026;-64
2022/08/17 13:34:22;;;;;;;17.42;11.98;;;27.10;99.90;;;;;;5016241;28;20068;-64
2022/08/17 13:36:50;;;;;;;23.27;11.95;;;27.20;99.90;;;;;;5023524;28;20129;-65
2022/08/17 13:39:22;;;;;;;15.85;12.18;;;27.60;99.90;;;;;;5021790;28;20037;-63